Time;durP1;ratioP1;P1;durP2;ratioP2;P2;SDS_P1;SDS_P2;PMS_P1;PMS_P2;Temp;Humidity;BMP_temperature;BMP_pressure;BME280_temperature;BME280_humidity;BME280_pressure;Samples;Min_cycle;Max_cycle;Signal;HPM_P1;HPM_P2
2023/01/08 00:03:35;;;;;;;40.78;16.10;;;;;;;8.08;68.54;100039.63;7709586;32;40100;-84
2023/01/08 00:07:52;;;;;;;38.65;16.00;;;;;;;8.35;67.53;100038.94;7709327;32;37652;-84
2023/01/08 00:12:10;;;;;;;40.60;16.50;;;;;;;8.14;68.06;100038.62;7709187;32;36240;-84
2023/01/08 00:16:27;;;;;;;40.20;16.52;;;;;;;8.18;68.36;100031.62;7709622;32;39392;-85
2023/01/08 00:20:45;;;;;;;37.38;16.35;;;;;;;8.32;67.90;100031.28;7709236;32;39832;-84
2023/01/08 00:25:01;;;;;;;35.85;16.33;;;;;;;8.37;67.62;100036.78;7709182;32;37928;-84
2023/01/08 00:29:19;;;;;;;41.33;16.40;;;;;;;8.22;68.04;100030.03;7709435;32;37073;-85
2023/01/08 00:33:36;;;;;;;44.25;16.20;;;;;;;8.51;67.03;100024.47;7695210;32;39363;-84
2023/01/08 00:37:52;;;;;;;41.42;16.92;;;;;;;8.22;67.94;100021.88;7709112;32;40531;-83
2023/01/08 00:42:08;;;;;;;38.97;16.75;;;;;;;8.25;68.04;100031.44;7708338;32;38005;-83
2023/01/08 00:46:24;;;;;;;39.65;17.42;;;;;;;8.30;67.82;100031.53;7695941;32;38046;-84
2023/01/08 00:50:41;;;;;;;36.38;16.17;;;;;;;8.17;68.46;100029.97;7712397;32;40075;-84
2023/01/08 00:54:57;;;;;;;33.25;16.27;;;;;;;8.32;67.90;100039.41;7712589;32;40034;-83
2023/01/08 00:59:13;;;;;;;41.72;16.73;;;;;;;8.05;69.08;100027.37;7712477;32;38045;-84
2023/01/08 01:03:30;;;;;;;43.95;16.35;;;;;;;8.62;66.76;100039.84;7712149;32;37139;-84
2023/01/08 01:07:47;;;;;;;38.55;15.65;;;;;;;8.40;67.49;100034.38;7712573;32;39267;-84
2023/01/08 01:12:03;;;;;;;36.30;16.17;;;;;;;8.20;68.41;100032.19;7710593;32;40860;-83
2023/01/08 01:16:22;;;;;;;38.05;16.87;;;;;;;8.46;67.31;100022.50;7712472;32;38506;-84
2023/01/08 01:20:39;;;;;;;38.35;16.25;;;;;;;8.33;67.31;100013.87;7712067;32;37484;-84
2023/01/08 01:24:56;;;;;;;45.85;16.75;;;;;;;8.26;67.95;100006.75;7712161;32;39393;-84
2023/01/08 01:29:12;;;;;;;43.30;17.35;;;;;;;8.16;68.45;100001.19;7712317;32;39994;-83
2023/01/08 01:33:32;;;;;;;48.83;18.12;;;;;;;8.30;67.84;100003.53;7711533;32;38175;-84
2023/01/08 01:37:48;;;;;;;40.88;16.67;;;;;;;8.31;67.96;100002.44;7712237;32;36969;-83
2023/01/08 01:42:05;;;;;;;45.15;17.60;;;;;;;8.42;67.31;99994.22;7711471;32;40222;-84
2023/01/08 01:46:38;;;;;;;40.65;17.20;;;;;;;8.40;67.39;99990.91;7712200;32;41117;-84
2023/01/08 01:50:54;;;;;;;;;;;;;;;8.35;67.43;99968.28;7711976;32;38718;-84
2023/01/08 01:55:12;;;;;;;42.67;15.85;;;;;;;8.26;68.00;99974.16;7712316;32;36800;-84
2023/01/08 01:59:29;;;;;;;52.15;17.20;;;;;;;8.24;68.26;99957.31;7697302;32;40080;-84
2023/01/08 02:03:45;;;;;;;42.53;17.90;;;;;;;8.37;67.92;99960.72;7711859;32;39933;-85
2023/01/08 02:08:17;;;;;;;38.97;16.05;;;;;;;8.26;68.12;99957.88;7711706;32;38687;-84
2023/01/08 02:12:50;;;;;;;38.88;15.75;;;;;;;7.72;70.33;99952.22;7692423;32;37283;-83
2023/01/08 02:17:09;;;;;;;37.87;15.43;;;;;;;7.98;69.37;99942.53;7699109;32;39552;-85
2023/01/08 02:22:03;;;;;;;41.05;16.73;;;;;;;8.14;68.53;99943.59;7698039;32;39655;-84
2023/01/08 02:26:28;;;;;;;40.17;15.88;;;;;;;8.07;68.79;99949.19;7711303;32;38726;-84
2023/01/08 02:30:45;;;;;;;42.90;16.15;;;;;;;7.69;70.20;99950.00;7710285;32;37119;-84
2023/01/08 02:35:01;;;;;;;37.35;15.98;;;;;;;8.12;69.22;99932.13;7697927;32;39382;-85
2023/01/08 02:39:39;;;;;;;42.85;17.40;;;;;;;8.25;68.62;99928.25;7711160;32;40768;-84
2023/01/08 02:43:57;;;;;;;42.00;17.17;;;;;;;8.45;67.56;99933.09;7711349;32;37628;-83
2023/01/08 02:48:35;;;;;;;36.30;15.02;;;;;;;7.97;69.51;99931.94;7697995;32;36977;-84
2023/01/08 02:53:19;;;;;;;39.38;15.40;;;;;;;8.44;67.93;99916.00;7698765;32;39841;-84
2023/01/08 02:57:35;;;;;;;35.90;14.55;;;;;;;8.01;68.95;99917.59;7711185;32;40009;-84
2023/01/08 03:01:52;;;;;;;42.95;16.25;;;;;;;8.33;68.35;99914.22;7696938;32;38866;-84
2023/01/08 03:06:11;;;;;;;41.83;16.62;;;;;;;7.93;69.61;99919.94;7711185;32;37230;-85
2023/01/08 03:10:29;;;;;;;42.10;16.20;;;;;;;7.79;70.23;99914.88;7697236;32;40051;-84
2023/01/08 03:15:03;;;;;;;47.13;16.90;;;;;;;7.88;70.44;99924.25;7696352;32;40167;-84
2023/01/08 03:19:20;;;;;;;48.33;15.88;;;;;;;8.07;69.53;99921.22;7696818;32;37839;-84
2023/01/08 03:23:37;;;;;;;40.92;15.35;;;;;;;7.94;69.40;99927.03;7710366;32;37345;-84
2023/01/08 03:27:59;;;;;;;38.10;15.45;;;;;;;8.11;69.49;99916.13;7697314;32;39803;-84
2023/01/08 03:32:17;;;;;;;44.17;16.52;;;;;;;8.21;69.13;99900.75;7697280;32;39953;-84
2023/01/08 03:36:35;;;;;;;41.58;17.15;;;;;;;8.32;68.85;99892.72;7697308;32;36857;-85
2023/01/08 03:40:58;;;;;;;45.78;16.83;;;;;;;8.00;69.68;99896.13;7709969;32;37209;-83
2023/01/08 03:45:15;;;;;;;43.60;15.70;;;;;;;8.11;69.41;99895.22;7697416;32;40059;-85
2023/01/08 03:49:32;;;;;;;42.70;16.27;;;;;;;8.28;68.85;99879.66;7695857;32;40810;-85
2023/01/08 03:53:51;;;;;;;49.55;17.23;;;;;;;8.26;68.48;99875.53;7696120;32;38582;-84
2023/01/08 03:58:08;;;;;;;44.50;16.95;;;;;;;8.11;69.24;99878.91;7696868;32;37086;-85
2023/01/08 04:02:24;;;;;;;44.67;17.02;;;;;;;7.91;70.32;99876.75;7709748;32;39470;-84
2023/01/08 04:06:41;;;;;;;50.60;17.65;;;;;;;8.18;69.15;99890.41;7709901;32;40274;-84
2023/01/08 04:10:57;;;;;;;52.13;19.60;;;;;;;8.02;69.77;99874.97;7709248;32;38046;-83
2023/01/08 04:15:13;;;;;;;45.53;18.95;;;;;;;8.13;69.00;99870.53;7709829;32;37262;-83
2023/01/08 04:19:32;;;;;;;49.67;18.98;;;;;;;7.80;70.09;99878.53;7709210;32;39320;-84
2023/01/08 04:23:48;;;;;;;49.70;19.08;;;;;;;8.14;69.10;99870.28;7711950;32;40029;-85
2023/01/08 04:28:07;;;;;;;51.78;18.80;;;;;;;7.78;69.89;99864.37;7713002;32;37964;-84
2023/01/08 04:32:23;;;;;;;47.15;19.48;;;;;;;7.91;69.98;99868.62;7712714;32;37271;-84
2023/01/08 04:36:40;;;;;;;47.15;18.98;;;;;;;8.20;69.21;99865.72;7712609;32;39858;-85
2023/01/08 04:40:58;;;;;;;47.88;18.90;;;;;;;8.23;68.95;99876.88;7712456;32;40844;-84
2023/01/08 04:45:14;;;;;;;49.45;19.52;;;;;;;8.05;69.47;99874.47;7712773;32;37662;-84
2023/01/08 04:49:30;;;;;;;45.30;20.70;;;;;;;8.16;68.97;99876.25;7712084;32;38161;-84
2023/01/08 04:53:47;;;;;;;49.88;19.37;;;;;;;8.05;69.31;99886.19;7712751;32;39281;-83
2023/01/08 04:58:05;;;;;;;43.50;19.40;;;;;;;7.97;69.22;99877.63;7698721;32;40850;-85
2023/01/08 05:02:22;;;;;;;45.40;18.87;;;;;;;7.63;70.75;99873.13;7712306;32;37630;-84
2023/01/08 05:06:38;;;;;;;45.03;19.83;;;;;;;7.97;69.55;99866.78;7712344;32;37516;-83
2023/01/08 05:11:00;;;;;;;51.10;19.73;;;;;;;8.35;68.14;99857.72;7711911;32;39405;-85
2023/01/08 05:15:17;;;;;;;44.72;19.52;;;;;;;7.90;69.34;99873.22;7712493;32;40778;-84
2023/01/08 05:19:33;;;;;;;50.03;20.00;;;;;;;8.11;68.81;99859.91;7711184;32;37954;-84
2023/01/08 05:23:51;;;;;;;46.05;20.45;;;;;;;8.08;68.76;99861.22;7703287;32;36338;-84
2023/01/08 05:28:08;;;;;;;43.25;19.50;;;;;;;8.11;68.84;99853.66;7712366;32;38993;-84
2023/01/08 05:32:24;;;;;;;48.60;21.02;;;;;;;8.16;68.58;99859.97;7711157;32;40864;-84
2023/01/08 05:36:40;;;;;;;43.80;20.15;;;;;;;7.96;68.92;99848.87;7711982;32;38732;-84
2023/01/08 05:40:57;;;;;;;43.28;19.00;;;;;;;8.26;67.96;99849.22;7711391;32;37952;-84
2023/01/08 05:45:15;;;;;;;41.78;19.12;;;;;;;8.19;67.93;99848.59;7712079;32;40188;-84
2023/01/08 05:49:31;;;;;;;42.85;18.30;;;;;;;8.17;68.05;99839.06;7711564;32;39952;-84
2023/01/08 05:53:48;;;;;;;40.28;18.15;;;;;;;8.33;67.27;99827.28;7711917;32;37615;-84
2023/01/08 05:58:05;;;;;;;41.55;18.55;;;;;;;8.29;67.16;99812.56;7698310;32;37795;-83
2023/01/08 06:02:21;;;;;;;37.75;18.15;;;;;;;8.10;67.77;99803.94;7711581;32;39444;-83
2023/01/08 06:06:37;;;;;;;36.75;18.20;;;;;;;8.19;67.24;99810.59;7711548;32;39877;-84
2023/01/08 06:10:57;;;;;;;37.55;18.50;;;;;;;8.22;67.14;99812.75;7711194;32;37548;-83
2023/01/08 06:15:13;;;;;;;38.03;18.35;;;;;;;7.95;68.06;99817.34;7711867;32;37289;-84
2023/01/08 06:19:30;;;;;;;47.22;19.52;;;;;;;7.90;68.02;99810.78;7711284;32;39265;-85
2023/01/08 06:23:46;;;;;;;44.58;19.35;;;;;;;7.86;68.47;99812.38;7711412;32;40555;-84
2023/01/08 06:28:03;;;;;;;40.95;19.52;;;;;;;8.12;67.47;99807.22;7711461;32;38801;-84
2023/01/08 06:32:20;;;;;;;47.10;19.87;;;;;;;7.98;67.82;99806.00;7711357;32;36897;-84
2023/01/08 06:36:36;;;;;;;37.58;18.52;;;;;;;8.02;67.75;99801.69;7711685;32;39248;-84
2023/01/08 06:40:52;;;;;;;36.55;18.90;;;;;;;8.08;67.08;99803.37;7711328;32;40828;-84
2023/01/08 06:45:09;;;;;;;49.35;20.17;;;;;;;8.27;66.67;99823.69;7710751;32;38620;-84
2023/01/08 06:49:25;;;;;;;41.08;19.05;;;;;;;7.95;67.94;99820.06;7710528;32;37471;-84
2023/01/08 06:53:42;;;;;;;45.15;19.65;;;;;;;7.79;68.40;99808.22;7711217;32;39188;-84
2023/01/08 06:57:58;;;;;;;45.88;20.27;;;;;;;8.19;67.18;99799.72;7711028;32;39950;-84
2023/01/08 07:02:16;;;;;;;46.67;21.50;;;;;;;7.94;67.94;99813.00;7711165;32;37909;-86
2023/01/08 07:06:33;;;;;;;49.92;22.00;;;;;;;7.66;68.61;99817.56;7711331;32;39365;-84
2023/01/08 07:10:49;;;;;;;48.67;22.30;;;;;;;7.41;70.02;99809.87;7710820;32;39314;-73
2023/01/08 07:15:06;;;;;;;37.88;17.45;;;;;;;7.48;71.67;99799.69;7697406;32;40827;-72
2023/01/08 07:19:22;;;;;;;48.13;22.65;;;;;;;7.99;73.13;99791.34;7710401;32;37920;-85
2023/01/08 07:23:40;;;;;;;49.22;21.02;;;;;;;7.44;71.30;99793.94;7587451;32;4025591;-85
2023/01/08 07:27:57;;;;;;;49.53;21.75;;;;;;;7.45;70.18;99795.59;7710390;32;41391;-85
2023/01/08 07:32:13;;;;;;;47.75;22.10;;;;;;;7.62;69.27;99795.53;7696555;32;40837;-86
2023/01/08 07:36:29;;;;;;;46.35;21.30;;;;;;;7.36;70.46;99796.25;7710476;32;38063;-85
2023/01/08 07:40:46;;;;;;;51.50;22.42;;;;;;;7.58;69.42;99799.81;7708751;32;38018;-86
2023/01/08 07:45:02;;;;;;;48.15;21.87;;;;;;;7.34;70.45;99799.22;7710445;32;39882;-85
2023/01/08 07:49:18;;;;;;;49.47;21.45;;;;;;;7.57;69.53;99798.19;7709893;32;39860;-85
2023/01/08 07:53:37;;;;;;;44.70;20.75;;;;;;;7.69;68.98;99784.47;7710070;32;37911;-83
2023/01/08 07:57:55;;;;;;;49.28;22.10;;;;;;;7.59;69.32;99785.19;7705687;32;37355;-84
2023/01/08 08:02:12;;;;;;;47.25;22.45;;;;;;;7.74;68.51;99781.81;7695994;32;39892;-87
2023/01/08 08:06:28;;;;;;;49.42;22.62;;;;;;;7.07;71.06;99786.38;7710141;32;39900;-85
2023/01/08 08:10:45;;;;;;;45.70;22.02;;;;;;;7.11;70.76;99776.66;7707968;32;37420;-85
2023/01/08 08:15:01;;;;;;;46.53;22.15;;;;;;;7.47;69.92;99769.03;7708989;32;38315;-84
2023/01/08 08:19:18;;;;;;;44.70;21.62;;;;;;;7.08;70.97;99769.03;7708940;32;39859;-85
2023/01/08 08:23:34;;;;;;;42.85;20.83;;;;;;;7.56;69.38;99760.44;7708904;32;40683;-84
2023/01/08 08:27:51;;;;;;;40.97;20.75;;;;;;;7.38;69.80;99756.97;7707974;32;37869;-85
2023/01/08 08:32:07;;;;;;;41.13;19.95;;;;;;;7.40;69.53;99748.56;7682172;32;37153;-85
2023/01/08 08:36:30;;;;;;;46.33;21.02;;;;;;;7.45;69.36;99752.19;7682278;32;38967;-84
2023/01/08 08:40:46;;;;;;;41.67;19.63;;;;;;;7.16;70.59;99751.53;7668095;32;39943;-85
2023/01/08 08:45:03;;;;;;;36.63;18.17;;;;;;;7.48;69.38;99750.84;7681758;32;37589;-85
2023/01/08 08:49:19;;;;;;;36.38;20.15;;;;;;;7.78;68.25;99744.13;7667998;32;38051;-85
2023/01/08 08:53:35;;;;;;;38.63;18.23;;;;;;;7.32;69.82;99753.34;7681957;32;39355;-85
2023/01/08 08:57:52;;;;;;;39.13;18.45;;;;;;;7.22;69.28;99747.00;7682171;32;40552;-84
2023/01/08 09:02:10;;;;;;;39.10;18.95;;;;;;;7.60;68.42;99740.69;7681324;32;37679;-85
2023/01/08 09:06:27;;;;;;;41.83;18.92;;;;;;;6.75;71.80;99759.88;7681846;32;37904;-85
2023/01/08 09:10:43;;;;;;;33.47;18.40;;;;;;;7.12;70.18;99751.22;7685498;32;40172;-86
2023/01/08 09:14:59;;;;;;;37.60;18.85;;;;;;;7.40;69.29;99743.16;7685145;32;40131;-87
2023/01/08 09:19:16;;;;;;;38.90;18.15;;;;;;;6.55;72.06;99749.56;7685747;32;39086;-87
2023/01/08 09:23:33;;;;;;;38.30;17.98;;;;;;;6.77;70.93;99741.47;7689376;32;37926;-87
2023/01/08 09:27:57;;;;;;;35.20;18.75;;;;;;;7.36;69.08;99736.59;7712071;32;39314;-86
2023/01/08 09:32:13;;;;;;;33.85;18.08;;;;;;;7.23;69.57;99737.81;7712016;32;39963;-86
2023/01/08 09:36:29;;;;;;;36.00;17.33;;;;;;;7.50;68.66;99727.00;7694103;32;37902;-86
2023/01/08 09:40:55;;;;;;;35.78;17.37;;;;;;;7.58;68.08;99725.75;7685574;32;37424;-87
2023/01/08 09:45:20;;;;;;;39.17;18.42;;;;;;;7.31;68.89;99718.34;7703888;32;39457;-86
2023/01/08 09:49:43;;;;;;;37.95;18.52;;;;;;;7.57;68.54;99705.94;7692081;32;40778;-87
2023/01/08 09:53:59;;;;;;;34.08;17.35;;;;;;;7.51;68.41;99696.91;7689277;32;38095;-87
2023/01/08 09:58:49;;;;;;;35.65;18.55;;;;;;;7.82;67.70;99683.66;7673388;32;37455;-85
2023/01/08 10:03:10;;;;;;;34.78;18.30;;;;;;;7.93;67.31;99686.50;7673950;32;39271;-85
2023/01/08 10:07:29;;;;;;;34.72;17.95;;;;;;;7.39;68.55;99682.66;7672102;32;40855;-86
2023/01/08 10:11:47;;;;;;;34.92;18.77;;;;;;;7.87;67.18;99666.63;7689831;32;38703;-87
2023/01/08 10:16:07;;;;;;;37.20;17.58;;;;;;;7.93;67.03;99664.78;7683306;32;36363;-87
2023/01/08 10:20:25;;;;;;;34.13;17.08;;;;;;;7.86;67.40;99649.53;7682379;32;40247;-89
2023/01/08 10:24:42;;;;;;;37.40;19.00;;;;;;;8.03;66.77;99632.28;7694344;32;40780;-87
2023/01/08 10:29:18;;;;;;;40.45;19.98;;;;;;;7.24;69.27;99636.38;7709998;32;38417;-88
2023/01/08 10:33:48;;;;;;;44.53;20.02;;;;;;;7.75;68.02;99628.78;7709944;32;37335;-88
2023/01/08 10:38:05;;;;;;;39.13;18.27;;;;;;;7.60;68.32;99634.87;7708905;32;39572;-86
2023/01/08 10:42:22;;;;;;;42.03;20.48;;;;;;;7.46;68.77;99634.47;7709673;32;39876;-87
2023/01/08 10:46:42;;;;;;;40.10;19.83;;;;;;;7.98;66.82;99634.97;7694665;32;37626;-85
2023/01/08 10:51:25;;;;;;;40.67;20.17;;;;;;;7.99;66.96;99636.59;7694663;32;37789;-87
2023/01/08 10:55:41;;;;;;;39.63;20.70;;;;;;;7.99;66.59;99614.88;7709934;32;39269;-87
2023/01/08 10:59:57;;;;;;;40.12;20.45;;;;;;;7.82;66.78;99610.41;7707646;32;40825;-87
2023/01/08 11:04:29;;;;;;;39.70;19.02;;;;;;;7.87;67.07;99601.47;7710452;32;39030;-84
2023/01/08 11:08:56;;;;;;;38.95;19.85;;;;;;;7.89;67.36;99599.31;7698129;32;38239;-87
2023/01/08 11:13:16;;;;;;;37.75;19.55;;;;;;;8.14;66.55;99578.88;7697912;32;40180;-87
2023/01/08 11:17:33;;;;;;;42.80;19.98;;;;;;;8.06;66.79;99583.72;7697547;32;39863;-86
2023/01/08 11:22:01;;;;;;;42.95;20.85;;;;;;;8.16;66.49;99565.84;7710917;32;38581;-88
2023/01/08 11:26:20;;;;;;;39.03;19.75;;;;;;;8.08;66.82;99559.81;7710705;32;36978;-87
2023/01/08 11:30:37;;;;;;;36.20;19.25;;;;;;;8.25;66.27;99548.00;7686677;32;39323;-88
2023/01/08 11:34:58;;;;;;;37.10;19.27;;;;;;;8.06;66.98;99548.41;7671086;32;39830;-87
2023/01/08 11:39:14;;;;;;;41.35;19.92;;;;;;;8.34;65.94;99529.31;7670815;32;37969;-87
2023/01/08 11:43:39;;;;;;;37.25;19.52;;;;;;;8.13;66.99;99540.06;7683873;32;37847;-88
2023/01/08 11:48:04;;;;;;;40.45;20.20;;;;;;;8.43;66.17;99527.75;7702218;32;39364;-86
2023/01/08 11:52:33;;;;;;;46.17;21.52;;;;;;;8.62;65.22;99512.66;7710377;32;39989;-86
2023/01/08 11:57:14;;;;;;;34.92;18.80;;;;;;;8.26;66.27;99517.88;7710309;32;38635;-86
2023/01/08 12:02:14;;;;;;;37.13;19.92;;;;;;;8.40;65.69;99510.06;7661104;32;37251;-87
2023/01/08 12:06:51;;;;;;;34.75;18.87;;;;;;;8.45;65.34;99499.25;7657205;32;40146;-86
2023/01/08 12:11:25;;;;;;;36.80;18.92;;;;;;;8.40;65.74;99501.91;7687839;32;41320;-86
2023/01/08 12:15:44;;;;;;;;;;;;;;;8.51;65.18;99500.09;7697013;32;37990;-86
2023/01/08 12:20:03;;;;;;;38.00;19.37;;;;;;;8.57;64.84;99498.19;7710151;32;36930;-87
2023/01/08 12:24:37;;;;;;;43.45;19.70;;;;;;;8.56;64.47;99508.25;7709457;32;39352;-88
2023/01/08 12:29:25;;;;;;;41.03;19.95;;;;;;;8.30;65.23;99501.88;7689542;32;39765;-86
2023/01/08 12:33:53;;;;;;;38.85;20.45;;;;;;;8.21;65.48;99520.56;7670985;32;37861;-87
2023/01/08 12:38:27;;;;;;;42.90;21.58;;;;;;;8.26;65.32;99515.16;7682844;32;37346;-87
2023/01/08 12:42:45;;;;;;;40.85;20.45;;;;;;;8.19;65.36;99517.28;7670740;32;40003;-86
2023/01/08 12:47:14;;;;;;;43.95;22.25;;;;;;;8.28;65.07;99507.56;7673587;32;40577;-88
2023/01/08 12:51:47;;;;;;;42.90;21.17;;;;;;;8.41;64.87;99508.16;7673297;32;37953;-87
2023/01/08 12:56:09;;;;;;;44.50;22.93;;;;;;;8.42;64.82;99509.81;7673278;32;37309;-86
2023/01/08 13:00:40;;;;;;;37.95;21.20;;;;;;;7.60;66.87;99510.06;7712750;32;40094;-89
2023/01/08 13:04:56;;;;;;;44.78;24.08;;;;;;;8.17;65.46;99500.41;7698559;32;40855;-87
2023/01/08 13:09:22;;;;;;;44.83;23.87;;;;;;;8.08;65.70;99491.16;7698874;32;37887;-87
2023/01/08 13:13:44;;;;;;;41.92;23.55;;;;;;;8.16;65.51;99495.25;7701419;32;37998;-87
2023/01/08 13:18:06;;;;;;;46.80;23.42;;;;;;;8.18;65.40;99488.50;7699012;32;39073;-87
2023/01/08 13:22:24;;;;;;;42.62;22.85;;;;;;;7.97;66.06;99484.00;7712478;32;40245;-85
2023/01/08 13:26:40;;;;;;;45.38;23.33;;;;;;;8.02;65.87;99476.72;7698082;32;40069;-87
2023/01/08 13:31:08;;;;;;;43.72;23.42;;;;;;;8.18;65.34;99476.81;7693229;32;37352;-81
2023/01/08 13:35:30;;;;;;;40.05;22.83;;;;;;;8.06;66.15;99474.31;7689301;32;39270;-85
2023/01/08 13:39:46;;;;;;;40.38;22.55;;;;;;;8.14;67.55;99484.69;7687342;32;39809;-85
2023/01/08 13:44:05;;;;;;;42.30;23.52;;;;;;;8.13;65.50;99477.59;7691313;32;38232;-84
2023/01/08 13:48:23;;;;;;;41.85;23.67;;;;;;;8.28;65.20;99464.09;7694162;32;37332;-86
2023/01/08 13:52:44;;;;;;;48.05;27.33;;;;;;;8.11;65.81;99468.91;7698442;32;39537;-85
2023/01/08 13:57:04;;;;;;;47.60;26.20;;;;;;;8.11;65.90;99470.81;7698403;32;38951;-87
2023/01/08 14:01:21;;;;;;;49.55;26.73;;;;;;;8.16;66.03;99471.66;7685302;32;38734;-86
2023/01/08 14:05:37;;;;;;;51.55;28.10;;;;;;;8.03;66.26;99474.81;7685163;32;38256;-86
2023/01/08 14:10:05;;;;;;;49.10;27.40;;;;;;;8.10;66.13;99469.97;7671379;32;40455;-86
2023/01/08 14:14:22;;;;;;;47.67;27.02;;;;;;;8.24;66.07;99464.88;7697057;32;39909;-86
2023/01/08 14:18:45;;;;;;;50.20;27.50;;;;;;;8.36;65.81;99472.81;7690796;32;38812;-86
2023/01/08 14:23:07;;;;;;;51.47;28.30;;;;;;;8.34;65.93;99464.94;7685123;32;38392;-86
2023/01/08 14:27:29;;;;;;;47.08;26.55;;;;;;;8.03;66.52;99464.78;7702144;32;39572;-86
2023/01/08 14:31:57;;;;;;;46.83;26.70;;;;;;;8.41;65.85;99470.13;7688827;32;40809;-86
2023/01/08 14:36:13;;;;;;;48.10;27.60;;;;;;;8.48;65.56;99459.03;7709195;32;38197;-85
2023/01/08 14:40:34;;;;;;;45.78;26.77;;;;;;;8.49;65.53;99461.50;7709472;32;36909;-85
2023/01/08 14:45:00;;;;;;;50.80;26.67;;;;;;;8.77;64.51;99445.81;7710521;32;39313;-86
2023/01/08 14:49:28;;;;;;;45.10;26.67;;;;;;;8.47;65.76;99447.38;7711416;32;40773;-87
2023/01/08 14:53:50;;;;;;;45.97;25.92;;;;;;;8.49;65.28;99452.53;7698645;32;37858;-85
2023/01/08 14:58:15;;;;;;;49.88;26.95;;;;;;;8.78;64.73;99444.75;7711407;32;37226;-86
2023/01/08 15:02:35;;;;;;;48.05;27.52;;;;;;;8.79;64.58;99444.47;7711381;32;39126;-86
2023/01/08 15:07:03;;;;;;;41.83;25.98;;;;;;;8.61;65.36;99453.13;7710655;32;40857;-87
2023/01/08 15:11:23;;;;;;;44.97;25.58;;;;;;;8.68;65.16;99442.81;7711091;32;38701;-86
2023/01/08 15:15:52;;;;;;;48.95;26.70;;;;;;;8.44;66.17;99440.56;7711169;32;37263;-86
2023/01/08 15:20:16;;;;;;;45.47;25.95;;;;;;;8.54;65.97;99436.25;7698616;32;39743;-86
2023/01/08 15:24:34;;;;;;;50.78;27.62;;;;;;;8.52;66.05;99428.38;7696366;32;39865;-86
2023/01/08 15:28:58;;;;;;;46.78;26.20;;;;;;;8.50;66.07;99430.50;7697184;32;37670;-86
2023/01/08 15:33:22;;;;;;;42.72;26.67;;;;;;;8.32;66.86;99425.56;7704624;32;37397;-87
2023/01/08 15:37:38;;;;;;;52.83;26.62;;;;;;;8.33;67.07;99419.03;7708275;32;39033;-84
2023/01/08 15:46:29;;;;;;;51.03;27.33;;;;;;;8.38;66.97;99405.47;7694786;32;37903;-86
2023/01/08 15:50:45;;;;;;;45.55;26.02;;;;;;;8.48;66.49;99391.94;7709508;32;37283;-86
2023/01/08 15:55:02;;;;;;;49.08;27.33;;;;;;;8.48;66.90;99400.09;7704014;32;39466;-87
2023/01/08 15:59:20;;;;;;;46.80;25.85;;;;;;;8.45;67.24;99395.19;7691831;32;39846;-87
2023/01/08 16:03:37;;;;;;;49.25;27.05;;;;;;;8.44;67.43;99393.56;7707941;32;37876;-86
2023/01/08 16:07:53;;;;;;;50.12;27.33;;;;;;;8.35;67.48;99395.16;7693546;32;37845;-87
2023/01/08 16:12:10;;;;;;;46.42;26.08;;;;;;;8.37;67.86;99382.13;7706700;32;39026;-88
2023/01/08 16:16:26;;;;;;;48.90;27.20;;;;;;;8.37;67.86;99371.25;7709734;32;39713;-87
2023/01/08 16:20:42;;;;;;;44.30;26.30;;;;;;;8.37;67.42;99388.34;7711693;32;38709;-87
2023/01/08 16:24:58;;;;;;;50.38;28.10;;;;;;;8.35;67.76;99384.28;7719270;32;37216;-87
2023/01/08 16:29:15;;;;;;;45.63;26.52;;;;;;;8.55;66.84;99373.47;7712674;32;39052;-87
2023/01/08 16:33:31;;;;;;;50.47;27.35;;;;;;;8.46;67.15;99375.09;7696149;32;40799;-87
2023/01/08 16:37:47;;;;;;;50.53;27.45;;;;;;;8.50;67.38;99373.47;7696693;32;37547;-87
2023/01/08 16:42:04;;;;;;;46.60;24.80;;;;;;;8.30;68.31;99370.69;7711150;32;37222;-88
2023/01/08 16:46:20;;;;;;;44.65;25.70;;;;;;;8.35;68.09;99363.38;7710395;32;39682;-88
2023/01/08 16:50:37;;;;;;;47.90;25.75;;;;;;;8.41;68.33;99364.19;7712415;32;40808;-87
2023/01/08 16:54:53;;;;;;;40.30;24.87;;;;;;;8.56;67.69;99364.25;7711478;32;38739;-87
2023/01/08 16:59:10;;;;;;;44.20;25.17;;;;;;;8.64;67.35;99357.47;7710413;32;37485;-87
2023/01/08 17:03:38;;;;;;;41.53;25.08;;;;;;;8.57;67.75;99349.59;7712367;32;39095;-87
2023/01/08 17:07:56;;;;;;;44.85;25.50;;;;;;;8.57;67.83;99354.19;7712312;32;39838;-87
2023/01/08 17:12:21;;;;;;;42.20;25.30;;;;;;;8.58;67.54;99348.50;7712304;32;38380;-87
2023/01/08 17:16:37;;;;;;;47.75;24.80;;;;;;;8.74;67.17;99345.78;7712237;32;37309;-88
2023/01/08 17:20:54;;;;;;;45.30;25.27;;;;;;;8.62;67.45;99341.44;7712151;32;39305;-89
2023/01/08 17:25:10;;;;;;;45.15;26.73;;;;;;;8.67;67.51;99342.53;7711155;32;40540;-88
2023/01/08 17:29:26;;;;;;;42.08;24.12;;;;;;;8.70;67.23;99336.56;7711656;32;38733;-87
2023/01/08 17:33:44;;;;;;;46.67;26.25;;;;;;;8.64;67.35;99347.44;7712059;32;37183;-89
2023/01/08 17:38:00;;;;;;;42.22;25.85;;;;;;;8.68;67.26;99344.97;7711304;32;39041;-86
2023/01/08 17:42:26;;;;;;;41.17;24.73;;;;;;;8.69;67.34;99343.06;7711880;32;40603;-87
2023/01/08 17:46:44;;;;;;;45.20;25.58;;;;;;;8.68;67.30;99323.25;7709676;32;38742;-87
2023/01/08 17:51:04;;;;;;;45.40;25.85;;;;;;;8.70;67.39;99328.41;7711773;32;37038;-87
2023/01/08 17:55:22;;;;;;;42.53;25.30;;;;;;;8.78;66.99;99317.00;7712087;32;39247;-87
2023/01/08 17:59:39;;;;;;;47.08;25.10;;;;;;;8.79;67.00;99324.06;7711954;32;39859;-87
2023/01/08 18:03:55;;;;;;;41.80;25.00;;;;;;;8.78;67.01;99333.31;7711581;32;38721;-86
2023/01/08 18:08:11;;;;;;;40.15;24.20;;;;;;;8.79;67.17;99326.78;7711953;32;37210;-86
2023/01/08 18:12:27;;;;;;;43.03;24.67;;;;;;;8.84;67.29;99324.06;7710551;32;40412;-86
2023/01/08 18:16:44;;;;;;;41.45;24.58;;;;;;;9.03;66.55;99319.69;7711610;32;40606;-87
2023/01/08 18:21:00;;;;;;;42.40;23.25;;;;;;;8.89;67.11;99318.62;7711330;32;37859;-87
2023/01/08 18:25:17;;;;;;;40.58;24.33;;;;;;;9.03;66.65;99314.25;7710687;32;37656;-87
2023/01/08 18:29:33;;;;;;;40.72;23.55;;;;;;;9.03;66.83;99318.88;7710882;32;39353;-87
2023/01/08 18:33:50;;;;;;;43.00;25.12;;;;;;;8.84;67.39;99319.44;7711211;32;40029;-87
2023/01/08 18:38:14;;;;;;;40.72;24.92;;;;;;;9.09;66.63;99316.97;7711220;32;38684;-87
2023/01/08 18:42:32;;;;;;;44.05;24.60;;;;;;;8.82;67.36;99323.53;7710024;32;37986;-87
2023/01/08 18:46:48;;;;;;;41.22;24.73;;;;;;;8.94;67.25;99310.47;7710517;32;39138;-86
2023/01/08 18:51:06;;;;;;;41.85;23.33;;;;;;;9.05;66.77;99313.19;7709765;32;40723;-87
2023/01/08 18:55:25;;;;;;;44.95;24.92;;;;;;;9.01;66.96;99321.88;7710547;32;39011;-87
2023/01/08 18:59:41;;;;;;;42.08;24.05;;;;;;;9.15;66.33;99305.81;7691022;32;37526;-87
2023/01/08 19:03:58;;;;;;;43.58;23.85;;;;;;;9.07;66.70;99311.00;7710315;32;39003;-86
2023/01/08 19:08:14;;;;;;;42.60;23.58;;;;;;;9.15;66.48;99324.03;7710531;32;39736;-87
2023/01/08 19:12:31;;;;;;;40.42;24.05;;;;;;;9.00;67.11;99319.44;7710763;32;37674;-87
2023/01/08 19:16:50;;;;;;;44.20;23.65;;;;;;;9.16;66.51;99312.91;7710684;32;37358;-87
2023/01/08 19:21:07;;;;;;;39.25;23.10;;;;;;;9.07;66.91;99311.84;7711009;32;39010;-87
2023/01/08 19:25:24;;;;;;;42.78;23.83;;;;;;;9.07;67.12;99303.69;7696885;32;41234;-86
2023/01/08 19:29:40;;;;;;;40.35;23.05;;;;;;;9.24;66.50;99295.19;7710215;32;38465;-87
2023/01/08 19:33:59;;;;;;;40.55;24.00;;;;;;;9.37;66.03;99291.91;7703602;32;37190;-87
2023/01/08 19:38:17;;;;;;;39.25;23.75;;;;;;;9.31;66.26;99287.59;7696313;32;39916;-87
2023/01/08 19:47:10;;;;;;;44.17;24.52;;;;;;;9.39;66.07;99286.19;7696945;32;37945;-88
2023/01/08 19:51:27;;;;;;;42.58;23.73;;;;;;;9.42;65.92;99279.38;7693947;32;38766;-87
2023/01/08 19:55:44;;;;;;;41.78;24.25;;;;;;;9.43;65.88;99286.47;7694600;32;40122;-87
2023/01/08 20:00:00;;;;;;;42.67;24.17;;;;;;;9.71;64.65;99274.94;7693869;32;39780;-87
2023/01/08 20:04:16;;;;;;;41.22;23.87;;;;;;;9.53;65.23;99270.09;7696095;32;38037;-86
2023/01/08 20:08:32;;;;;;;41.50;23.75;;;;;;;9.69;64.64;99255.34;7700369;32;35917;-87
2023/01/08 20:12:48;;;;;;;39.30;23.25;;;;;;;9.59;64.93;99261.66;7693693;32;39327;-86
2023/01/08 20:17:05;;;;;;;43.90;24.55;;;;;;;9.61;64.81;99253.19;7693562;32;39459;-85